createdAt,value
2022-08-23T00:01:00.722Z,4.38
2022-08-23T00:03:30.412Z,3.47
2022-08-23T00:05:59.274Z,3.38
2022-08-23T00:08:27.562Z,3.55
2022-08-23T00:10:59.113Z,3.88
2022-08-23T00:13:47.241Z,3.47
2022-08-23T00:16:17.312Z,3.70
2022-08-23T00:18:48.965Z,3.42
2022-08-23T00:21:20.187Z,3.40
2022-08-23T00:23:49.834Z,3.60
2022-08-23T00:26:22.655Z,3.75
2022-08-23T00:28:52.038Z,3.53
2022-08-23T00:31:22.231Z,3.63
2022-08-23T00:33:52.703Z,3.60
2022-08-23T00:36:22.574Z,3.50
2022-08-23T00:38:52.845Z,3.97
2022-08-23T00:41:25.225Z,4.20
2022-08-23T00:44:13.841Z,3.50
2022-08-23T00:47:09.143Z,3.53
2022-08-23T00:49:40.705Z,3.88
2022-08-23T00:52:14.350Z,4.53
2022-08-23T00:54:46.708Z,4.47
2022-08-23T00:57:20.683Z,4.37
2022-08-23T00:59:49.845Z,4.33
2022-08-23T01:02:18.798Z,4.82
2022-08-23T01:04:57.273Z,4.57
2022-08-23T01:07:38.200Z,4.23
2022-08-23T01:10:19.240Z,4.60
2022-08-23T01:12:57.384Z,4.40
2022-08-23T01:15:30.423Z,5.00
2022-08-23T01:18:05.594Z,4.47
2022-08-23T01:20:55.601Z,4.83
2022-08-23T01:23:30.703Z,4.90
2022-08-23T01:25:58.954Z,4.90
2022-08-23T01:28:27.730Z,4.65
2022-08-23T01:30:57.266Z,5.00
2022-08-23T01:33:25.474Z,5.03
2022-08-23T01:35:58.410Z,4.23
2022-08-23T01:38:32.902Z,5.20
2022-08-23T01:41:01.733Z,4.67
2022-08-23T01:43:31.293Z,4.60
2022-08-23T01:46:11.598Z,4.63
2022-08-23T01:48:41.106Z,5.00
2022-08-23T01:51:11.033Z,4.53
2022-08-23T01:53:40.814Z,5.00
2022-08-23T01:56:10.195Z,4.72
2022-08-23T01:58:41.149Z,5.22
2022-08-23T02:01:13.653Z,4.53
2022-08-23T02:03:45.992Z,4.47
2022-08-23T02:06:25.880Z,4.55
2022-08-23T02:09:05.256Z,4.60
2022-08-23T02:11:48.349Z,4.38
2022-08-23T02:14:22.506Z,4.80
2022-08-23T02:17:03.622Z,5.25
2022-08-23T02:19:34.748Z,4.70
2022-08-23T02:22:04.657Z,5.73
2022-08-23T02:24:40.104Z,4.60
2022-08-23T02:27:17.055Z,4.97
2022-08-23T02:29:52.805Z,5.23
2022-08-23T02:32:28.456Z,5.27
2022-08-23T02:35:06.040Z,5.22
2022-08-23T02:37:37.259Z,5.30
2022-08-23T02:40:17.950Z,4.87
2022-08-23T02:42:55.501Z,4.90
2022-08-23T02:45:29.232Z,5.00
2022-08-23T02:48:01.992Z,5.80
2022-08-23T02:50:31.250Z,5.63
2022-08-23T02:53:00.504Z,4.90
2022-08-23T02:55:30.939Z,4.93
2022-08-23T02:58:02.117Z,5.53
2022-08-23T03:00:33.153Z,5.73
2022-08-23T03:03:02.580Z,5.47
2022-08-23T03:06:24.717Z,4.77
2022-08-23T03:08:57.743Z,5.17
2022-08-23T03:11:32.234Z,5.60
2022-08-23T03:14:05.195Z,5.40
2022-08-23T03:16:37.557Z,5.80
2022-08-23T03:19:06.880Z,5.57
2022-08-23T03:21:35.792Z,6.10
2022-08-23T03:24:12.657Z,5.07
2022-08-23T03:26:58.276Z,5.73
2022-08-23T03:29:35.098Z,5.50
2022-08-23T03:35:07.009Z,5.23
2022-08-23T03:37:45.243Z,5.07
2022-08-23T03:40:21.563Z,5.07
2022-08-23T03:42:55.133Z,5.03
2022-08-23T03:48:55.643Z,5.28
2022-08-23T03:57:58.580Z,5.80
2022-08-23T04:03:58.792Z,5.80
2022-08-23T04:06:56.693Z,5.40
2022-08-23T04:09:50.908Z,6.30
2022-08-23T04:12:30.085Z,5.93
2022-08-23T04:15:13.519Z,5.25
2022-08-23T04:17:58.359Z,5.47
2022-08-23T04:20:33.986Z,5.80
2022-08-23T04:25:51.146Z,4.97
2022-08-23T04:28:46.617Z,5.70
2022-08-23T04:31:48.914Z,5.87
2022-08-23T04:34:55.883Z,5.93
2022-08-23T04:40:58.163Z,5.30
2022-08-23T04:43:40.429Z,5.03
2022-08-23T04:46:27.673Z,5.75
2022-08-23T04:49:45.722Z,5.50
2022-08-23T04:52:48.046Z,5.30
2022-08-23T04:58:21.073Z,5.33
2022-08-23T05:01:35.897Z,5.40
2022-08-23T05:04:14.863Z,4.97
2022-08-23T05:07:02.948Z,5.40
2022-08-23T05:10:00.870Z,5.50
2022-08-23T05:13:17.487Z,5.30
2022-08-23T05:22:00.626Z,5.10
2022-08-23T05:24:29.006Z,4.60
2022-08-23T05:30:22.158Z,4.57
2022-08-23T05:33:28.956Z,4.77
2022-08-23T05:47:03.077Z,5.20
2022-08-23T05:50:57.922Z,5.10
2022-08-23T05:53:47.395Z,5.80
2022-08-23T06:00:41.370Z,5.83
2022-08-23T06:07:19.840Z,5.90
2022-08-23T06:09:52.129Z,6.07
2022-08-23T06:12:24.904Z,5.37
2022-08-23T06:15:01.822Z,6.43
2022-08-23T06:29:09.581Z,5.83
2022-08-23T06:35:33.244Z,6.22
2022-08-23T06:37:51.869Z,6.20
2022-08-23T06:41:20.615Z,6.40
2022-08-23T06:43:55.429Z,6.50
2022-08-23T06:46:34.698Z,6.50
2022-08-23T06:49:21.374Z,7.10
2022-08-23T06:52:04.330Z,6.77
2022-08-23T06:54:35.126Z,6.90
2022-08-23T06:57:05.049Z,7.13
2022-08-23T06:59:34.615Z,7.68
2022-08-23T07:02:07.188Z,6.82
2022-08-23T07:04:37.549Z,7.17
2022-08-23T07:07:11.124Z,7.20
2022-08-23T07:09:40.271Z,6.50
2022-08-23T07:12:08.858Z,7.38
2022-08-23T07:14:40.072Z,7.45
2022-08-23T07:17:17.126Z,6.77
2022-08-23T07:19:45.870Z,6.90
2022-08-23T07:22:24.391Z,6.53
2022-08-23T07:24:55.837Z,6.63
2022-08-23T07:27:24.908Z,6.65
2022-08-23T07:29:55.637Z,6.80
2022-08-23T07:32:29.957Z,6.88
2022-08-23T07:34:59.980Z,5.40
2022-08-23T07:37:46.404Z,6.63
2022-08-23T07:40:20.517Z,7.20
2022-08-23T07:42:50.952Z,6.85
2022-08-23T07:45:24.836Z,5.65
2022-08-23T07:47:58.613Z,8.73
2022-08-23T07:50:30.388Z,6.80
2022-08-23T07:53:02.044Z,7.00
2022-08-23T07:58:18.840Z,6.63
2022-08-23T08:00:57.976Z,6.13
2022-08-23T08:09:49.755Z,6.18
2022-08-23T08:12:18.610Z,6.85
2022-08-23T08:14:48.285Z,7.45
2022-08-23T08:17:17.159Z,6.90
2022-08-23T08:19:46.116Z,6.50
2022-08-23T08:22:23.877Z,6.95
2022-08-23T08:24:55.722Z,6.10
2022-08-23T08:27:28.327Z,6.53
2022-08-23T08:29:57.939Z,6.43
2022-08-23T08:32:33.611Z,6.47
2022-08-23T08:35:07.265Z,6.25
2022-08-23T08:37:39.368Z,6.10
2022-08-23T08:40:14.235Z,6.57
2022-08-23T08:43:07.633Z,6.18
2022-08-23T08:45:41.226Z,5.95
2022-08-23T08:49:06.274Z,6.03
2022-08-23T08:52:05.259Z,6.22
2022-08-23T08:58:27.692Z,6.05
2022-08-23T09:00:59.942Z,7.85
2022-08-23T09:03:37.201Z,5.82
2022-08-23T09:06:22.514Z,6.22
2022-08-23T09:09:05.379Z,5.80
2022-08-23T09:11:48.093Z,5.70
2022-08-23T09:17:45.797Z,5.70
2022-08-23T09:21:36.241Z,5.00
2022-08-23T09:24:10.486Z,5.47
2022-08-23T09:26:43.580Z,5.43
2022-08-23T09:30:12.809Z,5.68
2022-08-23T09:32:44.196Z,5.90
2022-08-23T09:35:19.224Z,6.22
2022-08-23T09:37:57.046Z,4.80
2022-08-23T09:40:38.906Z,5.22
2022-08-23T09:43:14.311Z,5.60
2022-08-23T09:45:53.637Z,5.57
2022-08-23T09:48:37.101Z,5.00
2022-08-23T09:51:11.193Z,5.60
2022-08-23T09:53:45.618Z,7.30
2022-08-23T09:56:17.765Z,5.68
2022-08-23T09:58:51.083Z,5.50
2022-08-23T10:01:22.750Z,5.90
2022-08-23T10:04:09.567Z,6.03
2022-08-23T10:06:38.452Z,5.13
2022-08-23T10:09:08.406Z,4.63
2022-08-23T10:11:43.452Z,4.28
2022-08-23T10:14:12.043Z,4.72
2022-08-23T10:16:50.163Z,4.45
2022-08-23T10:19:26.968Z,5.03
2022-08-23T10:22:02.221Z,5.70
2022-08-23T10:24:39.976Z,6.03
2022-08-23T10:27:41.083Z,4.72
2022-08-23T10:30:13.330Z,5.55
2022-08-23T10:32:51.587Z,5.30
2022-08-23T10:35:36.133Z,4.32
2022-08-23T10:38:17.674Z,3.70
2022-08-23T10:40:56.071Z,4.22
2022-08-23T10:43:32.981Z,6.15
2022-08-23T10:46:02.663Z,3.95
2022-08-23T10:48:35.332Z,7.38
2022-08-23T10:51:10.002Z,4.28
2022-08-23T10:53:46.121Z,3.92
2022-08-23T10:56:18.881Z,3.58
2022-08-23T10:58:50.002Z,2.40
2022-08-23T11:01:22.551Z,3.72
2022-08-23T11:04:01.129Z,10.27
2022-08-23T11:06:45.846Z,3.50
2022-08-23T11:09:36.512Z,3.10
2022-08-23T11:12:22.432Z,3.47
2022-08-23T11:15:05.141Z,3.05
2022-08-23T11:17:42.315Z,3.50
2022-08-23T11:20:14.981Z,3.55
2022-08-23T11:23:18.154Z,4.88
2022-08-23T11:25:47.440Z,2.85
2022-08-23T11:28:47.880Z,2.42
2022-08-23T11:31:27.550Z,3.10
2022-08-23T11:36:32.269Z,2.95
2022-08-23T11:39:10.965Z,3.20
2022-08-23T11:42:04.131Z,3.00
2022-08-23T11:44:39.935Z,2.75
2022-08-23T11:47:11.424Z,2.70
2022-08-23T11:50:15.444Z,3.97
2022-08-23T11:53:09.196Z,3.60
2022-08-23T11:55:59.911Z,3.47
2022-08-23T11:58:44.148Z,3.40
2022-08-23T12:01:14.887Z,3.38
2022-08-23T12:03:57.873Z,3.00
2022-08-23T12:06:51.099Z,3.35
2022-08-23T12:09:55.892Z,3.33
2022-08-23T12:12:40.159Z,5.90
2022-08-23T12:15:16.420Z,4.40
2022-08-23T12:18:13.230Z,4.53
2022-08-23T12:20:48.576Z,6.00
2022-08-23T12:23:21.910Z,5.00
2022-08-23T12:26:04.174Z,3.97
2022-08-23T12:28:43.539Z,3.63
2022-08-23T12:31:24.023Z,5.80
2022-08-23T12:34:17.398Z,5.05
2022-08-23T12:36:55.355Z,3.75
2022-08-23T12:42:16.899Z,3.97
2022-08-23T12:48:40.551Z,3.63
2022-08-23T12:55:12.972Z,4.75
2022-08-23T12:57:45.175Z,4.38
2022-08-23T13:00:25.828Z,4.97
2022-08-23T13:03:03.018Z,5.15
2022-08-23T13:05:40.140Z,3.42
2022-08-23T13:08:19.474Z,3.67
2022-08-23T13:10:56.860Z,3.38
2022-08-23T13:13:28.938Z,2.40
2022-08-23T13:16:05.231Z,2.53
2022-08-23T13:18:47.905Z,2.50
2022-08-23T13:21:28.082Z,2.60
2022-08-23T13:24:37.640Z,2.45
2022-08-23T13:27:19.486Z,2.50
2022-08-23T13:30:20.027Z,3.38
2022-08-23T13:32:51.520Z,2.05
2022-08-23T13:35:49.935Z,2.15
2022-08-23T13:38:35.192Z,2.15
2022-08-23T13:41:15.156Z,2.20
2022-08-23T13:43:51.664Z,2.25
2022-08-23T13:46:23.121Z,2.22
2022-08-23T13:49:01.705Z,1.58
2022-08-23T13:51:36.966Z,1.83
2022-08-23T13:54:08.723Z,1.73
2022-08-23T13:56:56.442Z,1.88
2022-08-23T13:59:31.782Z,3.50
2022-08-23T14:02:03.102Z,1.80
2022-08-23T14:04:40.957Z,1.65
2022-08-23T14:07:12.703Z,1.77
2022-08-23T14:09:46.989Z,1.58
2022-08-23T14:12:24.408Z,2.00
2022-08-23T14:15:02.534Z,1.42
2022-08-23T14:17:33.219Z,2.10
2022-08-23T14:23:02.490Z,1.83
2022-08-23T14:25:36.648Z,1.80
2022-08-23T14:28:06.342Z,2.05
2022-08-23T14:30:37.093Z,1.52
2022-08-23T14:33:06.284Z,1.70
2022-08-23T14:35:38.367Z,2.10
2022-08-23T14:38:06.237Z,1.75
2022-08-23T14:40:35.899Z,1.75
2022-08-23T14:43:05.189Z,2.40
2022-08-23T14:45:33.078Z,1.70
2022-08-23T14:48:01.222Z,1.50
2022-08-23T14:50:29.626Z,2.00
2022-08-23T14:52:59.195Z,1.50
2022-08-23T14:55:27.887Z,1.70
2022-08-23T14:57:55.775Z,1.77
2022-08-23T15:00:23.850Z,1.85
2022-08-23T15:02:51.828Z,1.80
2022-08-23T15:05:20.369Z,2.00
2022-08-23T15:07:48.398Z,1.95
2022-08-23T15:13:29.737Z,2.03
2022-08-23T15:15:54.903Z,2.50
2022-08-23T15:18:23.235Z,2.30
2022-08-23T15:20:52.315Z,2.60
2022-08-23T15:23:20.907Z,2.40
2022-08-23T15:25:50.390Z,2.65
2022-08-23T15:28:20.595Z,2.58
2022-08-23T15:30:49.252Z,2.38
2022-08-23T15:33:17.609Z,2.63
2022-08-23T15:35:49.722Z,3.03
2022-08-23T15:38:21.276Z,2.95
2022-08-23T15:40:52.496Z,3.38
2022-08-23T15:43:22.120Z,3.40
2022-08-23T15:45:53.718Z,3.05
2022-08-23T15:48:24.137Z,3.30
2022-08-23T15:50:53.183Z,2.92
2022-08-23T15:53:22.411Z,3.55
2022-08-23T15:55:52.470Z,3.50
2022-08-23T15:58:24.015Z,4.00
2022-08-23T16:00:53.104Z,4.28
2022-08-23T16:03:22.415Z,3.92
2022-08-23T16:05:53.597Z,3.50
2022-08-23T16:08:28.166Z,2.92
2022-08-23T16:10:58.148Z,2.70
2022-08-23T16:13:27.519Z,2.85
2022-08-23T16:15:56.250Z,2.72
2022-08-23T16:18:24.516Z,3.50
2022-08-23T16:20:54.365Z,2.90
2022-08-23T16:23:23.139Z,2.97
2022-08-23T16:25:51.485Z,2.85
2022-08-23T16:28:20.765Z,2.58
2022-08-23T16:30:48.675Z,2.70
2022-08-23T16:33:16.645Z,3.22
2022-08-23T16:35:44.518Z,2.50
2022-08-23T16:38:12.508Z,2.92
2022-08-23T16:40:40.392Z,2.78
2022-08-23T16:43:08.212Z,2.83
2022-08-23T16:45:37.502Z,3.35
2022-08-23T16:48:05.898Z,3.42
2022-08-23T16:50:33.857Z,2.97
2022-08-23T16:53:06.938Z,4.10
2022-08-23T16:55:35.219Z,4.45
2022-08-23T16:58:03.902Z,4.97
2022-08-23T17:00:32.163Z,5.07
2022-08-23T17:03:02.072Z,5.32
2022-08-23T17:05:30.339Z,5.35
2022-08-23T17:07:58.607Z,4.60
2022-08-23T17:10:27.209Z,4.68
2022-08-23T17:12:58.205Z,4.65
2022-08-23T17:15:30.357Z,4.40
2022-08-23T17:18:00.850Z,4.63
2022-08-23T17:20:48.918Z,4.47
2022-08-23T17:23:22.153Z,4.60
2022-08-23T17:25:53.191Z,4.63
2022-08-23T17:28:23.999Z,4.40
2022-08-23T17:30:53.355Z,5.00
2022-08-23T17:33:23.675Z,4.68
2022-08-23T17:35:53.570Z,4.32
2022-08-23T17:38:21.845Z,3.90
2022-08-23T17:40:49.848Z,4.30
2022-08-23T17:43:19.384Z,4.40
2022-08-23T17:45:49.829Z,4.65
2022-08-23T17:48:19.559Z,4.68
2022-08-23T17:50:47.937Z,4.30
2022-08-23T17:53:18.955Z,4.03
2022-08-23T17:55:46.914Z,3.85
2022-08-23T17:58:14.978Z,3.88
2022-08-23T18:00:44.180Z,3.58
2022-08-23T18:03:12.187Z,3.85
2022-08-23T18:05:43.440Z,3.88
2022-08-23T18:08:11.570Z,3.70
2022-08-23T18:10:42.279Z,3.60
2022-08-23T18:13:12.413Z,3.47
2022-08-23T18:15:41.144Z,3.40
2022-08-23T18:18:10.729Z,3.33
2022-08-23T18:20:39.209Z,2.92
2022-08-23T18:23:07.937Z,3.00
2022-08-23T18:25:42.086Z,2.88
2022-08-23T18:28:12.209Z,2.75
2022-08-23T18:30:49.851Z,3.35
2022-08-23T18:33:19.706Z,2.97
2022-08-23T18:35:54.370Z,3.20
2022-08-23T18:38:25.926Z,3.08
2022-08-23T18:40:54.138Z,2.60
2022-08-23T18:43:27.356Z,3.38
2022-08-23T18:46:05.931Z,2.55
2022-08-23T18:48:36.645Z,2.55
2022-08-23T18:51:05.398Z,2.30
2022-08-23T18:53:44.081Z,2.10
2022-08-23T18:56:12.747Z,2.38
2022-08-23T18:58:49.130Z,2.30
2022-08-23T19:04:02.460Z,1.85
2022-08-23T19:06:47.188Z,2.38
2022-08-23T19:09:32.807Z,2.10
2022-08-23T19:12:12.731Z,2.17
2022-08-23T19:14:47.387Z,2.22
2022-08-23T19:17:25.632Z,2.13
2022-08-23T19:19:57.414Z,2.20
2022-08-23T19:22:25.649Z,2.03
2022-08-23T19:24:53.510Z,2.20
2022-08-23T19:27:22.918Z,2.33
2022-08-23T19:29:58.178Z,2.38
2022-08-23T19:32:26.922Z,2.45
2022-08-23T19:34:56.219Z,2.50
2022-08-23T19:37:28.137Z,2.10
2022-08-23T19:39:57.670Z,2.05
2022-08-23T19:42:27.094Z,2.25
2022-08-23T19:44:57.534Z,2.17
2022-08-23T19:47:29.193Z,2.10
2022-08-23T19:50:02.253Z,2.20
2022-08-23T19:52:30.759Z,2.30
2022-08-23T19:55:05.544Z,2.38
2022-08-23T19:57:36.756Z,3.00
2022-08-23T20:00:15.726Z,2.70
2022-08-23T20:02:47.315Z,3.53
2022-08-23T20:05:16.422Z,3.42
2022-08-23T20:07:49.436Z,2.88
2022-08-23T20:10:18.939Z,2.78
2022-08-23T20:12:49.932Z,2.72
2022-08-23T20:15:20.552Z,3.45
2022-08-23T20:17:48.451Z,2.95
2022-08-23T20:20:16.434Z,2.83
2022-08-23T20:23:01.845Z,3.42
2022-08-23T20:25:31.064Z,3.47
2022-08-23T20:27:59.756Z,3.30
2022-08-23T20:30:29.462Z,3.10
2022-08-23T20:32:57.443Z,3.92
2022-08-23T20:35:25.573Z,4.00
2022-08-23T20:37:53.672Z,4.10
2022-08-23T20:40:23.213Z,3.85
2022-08-23T20:42:51.852Z,4.00
2022-08-23T20:45:20.139Z,3.67
2022-08-23T20:47:49.397Z,3.88
2022-08-23T20:50:18.085Z,3.53
2022-08-23T20:52:46.935Z,3.38
2022-08-23T20:55:15.648Z,4.55
2022-08-23T20:57:43.628Z,4.40
2022-08-23T21:00:16.007Z,3.95
2022-08-23T21:02:44.175Z,4.10
2022-08-23T21:05:14.255Z,3.83
2022-08-23T21:07:43.818Z,4.00
2022-08-23T21:10:11.813Z,3.90
2022-08-23T21:12:40.781Z,4.10
2022-08-23T21:15:11.116Z,4.47
2022-08-23T21:17:39.373Z,3.90
2022-08-23T21:20:08.306Z,4.43
2022-08-23T21:22:37.731Z,4.18
2022-08-23T21:25:06.927Z,4.65
2022-08-23T21:27:35.118Z,4.50
2022-08-23T21:30:03.731Z,4.80
2022-08-23T21:32:31.800Z,5.32
2022-08-23T21:35:00.073Z,5.22
2022-08-23T21:37:28.317Z,5.15
2022-08-23T21:39:57.679Z,4.72
2022-08-23T21:42:25.987Z,4.55
2022-08-23T21:44:54.193Z,4.57
2022-08-23T21:47:22.065Z,4.85
2022-08-23T21:49:49.968Z,5.00
2022-08-23T21:52:17.884Z,4.45
2022-08-23T21:54:45.755Z,5.15
2022-08-23T21:57:15.222Z,5.45
2022-08-23T21:59:43.511Z,5.50
2022-08-23T22:02:11.430Z,5.45
2022-08-23T22:04:39.682Z,6.00
2022-08-23T22:07:07.630Z,5.57
2022-08-23T22:09:35.713Z,5.28
2022-08-23T22:12:05.262Z,5.50
2022-08-23T22:14:36.814Z,5.50
2022-08-23T22:17:05.454Z,5.63
2022-08-23T22:19:33.570Z,5.15
2022-08-23T22:22:01.566Z,5.45
2022-08-23T22:24:29.401Z,4.40
2022-08-23T22:26:57.270Z,5.10
2022-08-23T22:29:25.847Z,5.13
2022-08-23T22:31:56.380Z,4.40
2022-08-23T22:34:24.388Z,4.90
2022-08-23T22:36:52.782Z,4.30
2022-08-23T22:39:21.113Z,4.53
2022-08-23T22:41:49.870Z,4.80
2022-08-23T22:44:18.713Z,4.40
2022-08-23T22:46:46.780Z,4.47
2022-08-23T22:49:16.247Z,4.75
2022-08-23T22:51:44.507Z,4.70
2022-08-23T22:54:14.299Z,4.65
2022-08-23T22:56:44.071Z,5.05
2022-08-23T22:59:13.037Z,5.53
2022-08-23T23:01:46.055Z,5.82
2022-08-23T23:04:19.032Z,6.20
2022-08-23T23:06:49.022Z,6.68
2022-08-23T23:09:17.327Z,6.32
2022-08-23T23:11:46.583Z,5.82
2022-08-23T23:14:15.632Z,5.88
2022-08-23T23:16:45.558Z,6.13
2022-08-23T23:19:31.367Z,6.70
2022-08-23T23:22:01.363Z,6.70
2022-08-23T23:24:32.081Z,6.30
2022-08-23T23:27:00.237Z,6.65
2022-08-23T23:29:28.550Z,6.65
2022-08-23T23:31:57.459Z,6.53
2022-08-23T23:34:26.049Z,6.57
2022-08-23T23:36:55.830Z,7.18
2022-08-23T23:39:25.718Z,6.85
2022-08-23T23:41:54.360Z,7.22
2022-08-23T23:44:29.911Z,7.53
2022-08-23T23:47:00.119Z,7.35
2022-08-23T23:49:32.361Z,7.97
2022-08-23T23:52:01.620Z,7.50
2022-08-23T23:54:31.507Z,7.95
2022-08-23T23:56:59.759Z,8.57
2022-08-23T23:59:27.674Z,8.52
